createdAt,value
2023-02-15T00:00:56.068Z,52.46
2023-02-15T00:03:34.535Z,52.70
2023-02-15T00:06:07.460Z,52.80
2023-02-15T00:08:39.697Z,52.89
2023-02-15T00:11:16.057Z,52.92
2023-02-15T00:13:48.317Z,53.01
2023-02-15T00:16:20.512Z,53.09
2023-02-15T00:18:55.708Z,53.03
2023-02-15T00:21:27.933Z,53.12
2023-02-15T00:24:01.030Z,53.05
2023-02-15T00:26:33.628Z,53.19
2023-02-15T00:29:06.382Z,53.29
2023-02-15T00:31:39.205Z,53.32
2023-02-15T00:34:15.493Z,53.13
2023-02-15T00:36:48.530Z,53.10
2023-02-15T00:39:21.792Z,53.34
2023-02-15T00:41:54.069Z,53.51
2023-02-15T00:44:26.397Z,53.41
2023-02-15T00:46:58.843Z,53.32
2023-02-15T00:49:31.210Z,53.49
2023-02-15T00:52:03.449Z,53.54
2023-02-15T00:54:36.787Z,53.47
2023-02-15T00:57:09.163Z,53.59
2023-02-15T00:59:41.354Z,53.41
2023-02-15T01:02:13.655Z,53.53
2023-02-15T01:04:46.267Z,53.58
2023-02-15T01:07:18.626Z,53.74
2023-02-15T01:09:50.967Z,53.87
2023-02-15T01:12:23.246Z,53.82
2023-02-15T01:14:55.589Z,53.87
2023-02-15T01:17:28.285Z,53.96
2023-02-15T01:20:01.431Z,54.00
2023-02-15T01:22:33.693Z,53.92
2023-02-15T01:25:06.544Z,53.96
2023-02-15T01:27:38.830Z,54.06
2023-02-15T01:30:13.491Z,54.12
2023-02-15T01:32:46.637Z,54.03
2023-02-15T01:35:19.044Z,54.17
2023-02-15T01:37:51.457Z,54.39
2023-02-15T01:40:24.815Z,54.30
2023-02-15T01:42:58.517Z,54.46
2023-02-15T01:45:32.593Z,54.27
2023-02-15T01:48:08.172Z,54.19
2023-02-15T01:50:43.817Z,54.60
2023-02-15T01:53:20.343Z,54.76
2023-02-15T01:55:56.604Z,54.50
2023-02-15T01:58:31.380Z,54.64
2023-02-15T02:01:06.858Z,54.60
2023-02-15T02:03:52.135Z,54.75
2023-02-15T02:06:26.459Z,54.56
2023-02-15T02:08:59.948Z,54.52
2023-02-15T02:11:32.281Z,54.71
2023-02-15T02:14:04.665Z,54.75
2023-02-15T02:16:47.480Z,54.99
2023-02-15T02:19:56.615Z,54.72
2023-02-15T02:23:10.453Z,54.78
2023-02-15T02:26:11.914Z,54.78
2023-02-15T02:29:30.399Z,54.92
2023-02-15T02:32:27.109Z,54.87
2023-02-15T02:35:03.448Z,54.88
2023-02-15T02:37:46.694Z,54.85
2023-02-15T02:40:27.357Z,55.13
2023-02-15T02:43:05.498Z,55.05
2023-02-15T02:45:48.040Z,54.81
2023-02-15T02:48:25.022Z,54.96
2023-02-15T02:50:57.415Z,55.30
2023-02-15T02:53:32.666Z,55.11
2023-02-15T02:56:08.788Z,55.28
2023-02-15T02:58:47.402Z,55.09
2023-02-15T03:01:25.002Z,55.38
2023-02-15T03:04:02.971Z,55.24
2023-02-15T03:06:42.818Z,55.19
2023-02-15T03:09:19.870Z,55.15
2023-02-15T03:11:53.027Z,55.33
2023-02-15T03:14:25.449Z,55.36
2023-02-15T03:16:58.755Z,55.28
2023-02-15T03:19:35.708Z,55.11
2023-02-15T03:22:13.211Z,55.27
2023-02-15T03:24:51.320Z,55.51
2023-02-15T03:27:26.929Z,55.33
2023-02-15T03:30:02.253Z,55.16
2023-02-15T03:32:37.622Z,55.18
2023-02-15T03:35:10.887Z,55.55
2023-02-15T03:37:48.858Z,55.58
2023-02-15T03:40:43.068Z,55.26
2023-02-15T03:43:21.737Z,55.43
2023-02-15T03:45:59.940Z,55.46
2023-02-15T03:48:37.324Z,55.73
2023-02-15T03:51:32.002Z,55.49
2023-02-15T03:54:06.522Z,55.31
2023-02-15T03:56:40.851Z,55.65
2023-02-15T03:59:30.616Z,55.89
2023-02-15T04:02:17.479Z,55.61
2023-02-15T04:04:51.407Z,55.55
2023-02-15T04:07:23.702Z,55.74
2023-02-15T04:10:13.764Z,56.02
2023-02-15T04:12:46.713Z,56.04
2023-02-15T04:15:36.419Z,55.81
2023-02-15T04:18:09.039Z,56.11
2023-02-15T04:20:58.647Z,56.10
2023-02-15T04:23:48.465Z,55.96
2023-02-15T04:26:20.679Z,56.25
2023-02-15T04:28:53.039Z,55.88
2023-02-15T04:31:25.503Z,56.05
2023-02-15T04:33:58.064Z,56.09
2023-02-15T04:36:30.318Z,55.73
2023-02-15T04:39:02.655Z,56.16
2023-02-15T04:41:35.592Z,55.89
2023-02-15T04:44:08.345Z,55.77
2023-02-15T04:46:40.653Z,56.03
2023-02-15T04:49:13.359Z,56.04
2023-02-15T04:51:45.808Z,56.12
2023-02-15T04:54:18.094Z,56.20
2023-02-15T04:56:50.514Z,56.14
2023-02-15T04:59:22.702Z,56.21
2023-02-15T05:01:55.166Z,56.00
2023-02-15T05:04:27.905Z,56.05
2023-02-15T05:07:00.300Z,56.29
2023-02-15T05:09:32.711Z,56.33
2023-02-15T05:12:05.136Z,56.50
2023-02-15T05:14:37.464Z,56.37
2023-02-15T05:17:09.845Z,56.55
2023-02-15T05:19:42.200Z,56.46
2023-02-15T05:22:14.589Z,56.39
2023-02-15T05:25:04.184Z,56.62
2023-02-15T05:27:54.225Z,56.47
2023-02-15T05:30:26.707Z,56.48
2023-02-15T05:32:59.133Z,56.73
2023-02-15T05:35:31.341Z,56.53
2023-02-15T05:38:06.422Z,56.78
2023-02-15T05:40:39.105Z,56.56
2023-02-15T05:43:11.418Z,56.92
2023-02-15T05:45:46.493Z,56.82
2023-02-15T05:48:19.665Z,57.08
2023-02-15T05:51:01.502Z,57.07
2023-02-15T05:53:35.971Z,57.32
2023-02-15T05:56:10.380Z,57.36
2023-02-15T05:58:43.958Z,57.18
2023-02-15T06:01:18.245Z,57.18
2023-02-15T06:03:50.767Z,57.13
2023-02-15T06:06:23.293Z,56.96
2023-02-15T06:08:56.194Z,57.23
2023-02-15T06:11:28.583Z,57.36
2023-02-15T06:14:00.962Z,57.35
2023-02-15T06:16:33.458Z,56.97
2023-02-15T06:19:06.434Z,56.87
2023-02-15T06:21:38.820Z,56.82
2023-02-15T06:24:12.101Z,56.90
2023-02-15T06:26:44.456Z,56.98
2023-02-15T06:29:16.951Z,57.21
2023-02-15T06:31:49.381Z,57.23
2023-02-15T06:34:21.808Z,57.48
2023-02-15T06:36:54.334Z,57.24
2023-02-15T06:39:26.822Z,57.06
2023-02-15T06:41:59.722Z,56.50
2023-02-15T06:44:33.134Z,56.60
2023-02-15T06:47:05.580Z,56.25
2023-02-15T06:49:37.889Z,55.97
2023-02-15T06:52:10.412Z,55.91
2023-02-15T06:54:43.890Z,55.90
2023-02-15T06:57:16.276Z,55.60
2023-02-15T06:59:48.579Z,55.55
2023-02-15T07:02:21.005Z,55.73
2023-02-15T07:04:53.401Z,55.66
2023-02-15T07:07:25.770Z,55.53
2023-02-15T07:09:58.093Z,55.10
2023-02-15T07:12:46.033Z,55.00
2023-02-15T07:15:21.784Z,54.60
2023-02-15T07:17:54.345Z,54.31
2023-02-15T07:20:27.307Z,54.23
2023-02-15T07:22:59.784Z,53.93
2023-02-15T07:25:32.317Z,53.74
2023-02-15T07:28:06.149Z,53.60
2023-02-15T07:30:38.436Z,53.44
2023-02-15T07:33:25.859Z,53.11
2023-02-15T07:35:59.962Z,52.94
2023-02-15T07:38:35.457Z,52.96
2023-02-15T07:41:09.447Z,53.04
2023-02-15T07:43:44.112Z,53.11
2023-02-15T07:46:17.928Z,53.01
2023-02-15T07:48:50.505Z,52.90
2023-02-15T07:51:22.808Z,52.54
2023-02-15T07:53:55.142Z,52.31
2023-02-15T07:56:27.647Z,52.53
2023-02-15T07:59:04.140Z,52.75
2023-02-15T08:01:38.295Z,52.09
2023-02-15T08:04:12.175Z,51.93
2023-02-15T08:06:44.541Z,51.84
2023-02-15T08:09:16.838Z,52.22
2023-02-15T08:11:51.391Z,51.86
2023-02-15T08:14:24.553Z,51.80
2023-02-15T08:17:03.508Z,51.83
2023-02-15T08:19:36.794Z,51.72
2023-02-15T08:22:11.360Z,51.72
2023-02-15T08:24:43.814Z,51.75
2023-02-15T08:27:16.176Z,51.57
2023-02-15T08:29:48.573Z,51.63
2023-02-15T08:32:21.106Z,51.59
2023-02-15T08:34:53.749Z,51.34
2023-02-15T08:37:26.836Z,51.24
2023-02-15T08:39:59.195Z,51.22
2023-02-15T08:42:31.537Z,51.19
2023-02-15T08:45:03.871Z,50.72
2023-02-15T08:47:36.206Z,50.29
2023-02-15T08:50:10.046Z,50.07
2023-02-15T08:52:42.732Z,50.18
2023-02-15T08:55:15.038Z,50.15
2023-02-15T08:57:48.074Z,50.02
2023-02-15T09:00:23.613Z,49.93
2023-02-15T09:02:56.266Z,49.42
2023-02-15T09:05:28.872Z,49.54
2023-02-15T09:08:01.250Z,49.56
2023-02-15T09:10:33.637Z,49.38
2023-02-15T09:13:06.062Z,49.37
2023-02-15T09:15:38.448Z,49.24
2023-02-15T09:18:10.731Z,49.08
2023-02-15T09:20:43.044Z,48.50
2023-02-15T09:23:26.843Z,48.69
2023-02-15T09:26:04.377Z,48.41
2023-02-15T09:28:37.166Z,48.14
2023-02-15T09:31:12.174Z,48.38
2023-02-15T09:33:46.604Z,47.99
2023-02-15T09:36:22.647Z,48.11
2023-02-15T09:39:00.133Z,48.13
2023-02-15T09:42:08.031Z,48.12
2023-02-15T09:45:00.459Z,47.76
2023-02-15T09:47:54.518Z,47.63
2023-02-15T09:50:36.772Z,47.36
2023-02-15T09:53:29.830Z,46.89
2023-02-15T09:56:09.063Z,47.10
2023-02-15T09:58:54.622Z,47.21
2023-02-15T10:01:38.769Z,47.26
2023-02-15T10:04:27.109Z,46.86
2023-02-15T10:07:07.917Z,46.50
2023-02-15T10:09:52.506Z,45.94
2023-02-15T10:12:45.524Z,46.22
2023-02-15T10:15:30.227Z,45.95
2023-02-15T10:18:21.904Z,45.45
2023-02-15T10:21:04.348Z,45.71
2023-02-15T10:23:56.062Z,45.75
2023-02-15T10:26:33.857Z,45.72
2023-02-15T10:29:11.155Z,45.71
2023-02-15T10:31:50.221Z,45.40
2023-02-15T10:34:29.583Z,45.36
2023-02-15T10:37:26.949Z,44.96
2023-02-15T10:40:09.427Z,45.13
2023-02-15T10:42:56.942Z,45.19
2023-02-15T10:45:42.998Z,44.93
2023-02-15T10:48:37.078Z,45.10
2023-02-15T10:51:18.020Z,44.82
2023-02-15T10:54:06.888Z,44.79
2023-02-15T10:56:49.519Z,44.91
2023-02-15T10:59:35.898Z,44.60
2023-02-15T11:02:11.983Z,44.69
2023-02-15T11:04:56.484Z,44.26
2023-02-15T11:07:35.621Z,44.10
2023-02-15T11:10:30.844Z,43.81
2023-02-15T11:13:10.986Z,44.25
2023-02-15T11:15:47.806Z,44.05
2023-02-15T11:18:26.867Z,44.24
2023-02-15T11:21:04.286Z,44.07
2023-02-15T11:23:43.148Z,43.41
2023-02-15T11:26:21.616Z,43.24
2023-02-15T11:28:59.774Z,43.30
2023-02-15T11:31:45.206Z,43.11
2023-02-15T11:34:24.770Z,43.44
2023-02-15T11:37:00.896Z,43.14
2023-02-15T11:39:37.461Z,43.32
2023-02-15T11:42:15.979Z,42.89
2023-02-15T11:44:56.560Z,42.90
2023-02-15T11:47:28.941Z,42.92
2023-02-15T11:50:01.691Z,43.01
2023-02-15T11:52:34.735Z,42.94
2023-02-15T11:55:20.295Z,43.05
2023-02-15T11:57:58.529Z,43.18
2023-02-15T12:00:38.601Z,43.19
2023-02-15T12:03:23.405Z,43.24
2023-02-15T12:06:00.936Z,43.00
2023-02-15T12:08:40.416Z,43.12
2023-02-15T12:11:17.447Z,42.63
2023-02-15T12:14:03.842Z,42.74
2023-02-15T12:16:44.893Z,42.61
2023-02-15T12:19:30.713Z,42.58
2023-02-15T12:22:05.947Z,42.61
2023-02-15T12:24:46.411Z,42.69
2023-02-15T12:27:22.305Z,42.42
2023-02-15T12:29:54.149Z,42.49
2023-02-15T12:32:29.853Z,42.64
2023-02-15T12:35:10.065Z,42.54
2023-02-15T12:37:53.431Z,42.62
2023-02-15T12:40:31.256Z,42.77
2023-02-15T12:43:09.669Z,42.76
2023-02-15T12:45:42.302Z,42.86
2023-02-15T12:48:19.276Z,42.61
2023-02-15T12:50:55.924Z,42.64
2023-02-15T12:53:35.880Z,42.92
2023-02-15T12:56:11.064Z,43.00
2023-02-15T12:58:46.988Z,43.02
2023-02-15T13:01:25.597Z,42.94
2023-02-15T13:04:03.583Z,42.94
2023-02-15T13:06:38.838Z,43.13
2023-02-15T13:09:20.421Z,43.21
2023-02-15T13:11:53.337Z,43.03
2023-02-15T13:14:31.170Z,43.09
2023-02-15T13:17:08.724Z,42.85
2023-02-15T13:19:45.112Z,42.96
2023-02-15T13:22:21.096Z,42.92
2023-02-15T13:24:58.214Z,42.93
2023-02-15T13:27:41.412Z,42.89
2023-02-15T13:30:25.884Z,42.88
2023-02-15T13:33:03.091Z,42.95
2023-02-15T13:35:45.673Z,42.90
2023-02-15T13:38:44.669Z,43.01
2023-02-15T13:41:22.525Z,42.85
2023-02-15T13:44:01.719Z,43.01
2023-02-15T13:46:48.318Z,42.91
2023-02-15T13:49:30.534Z,42.75
2023-02-15T13:52:10.649Z,42.68
2023-02-15T13:55:02.700Z,42.49
2023-02-15T13:57:55.980Z,42.57
2023-02-15T14:00:34.901Z,42.58
2023-02-15T14:03:46.274Z,42.49
2023-02-15T14:06:47.178Z,42.51
2023-02-15T14:09:32.639Z,42.46
2023-02-15T14:12:22.683Z,42.54
2023-02-15T14:15:20.728Z,42.54
2023-02-15T14:18:04.212Z,42.43
2023-02-15T14:20:51.203Z,42.46
2023-02-15T14:23:37.309Z,42.36
2023-02-15T14:26:14.279Z,42.33
2023-02-15T14:28:53.553Z,42.41
2023-02-15T14:31:36.109Z,42.47
2023-02-15T14:34:18.016Z,42.17
2023-02-15T14:36:51.844Z,42.26
2023-02-15T14:39:51.871Z,42.11
2023-02-15T14:42:33.744Z,42.19
2023-02-15T14:45:17.736Z,42.17
2023-02-15T14:47:57.831Z,42.11
2023-02-15T14:50:47.832Z,41.87
2023-02-15T14:53:27.460Z,41.95
2023-02-15T14:56:19.886Z,41.98
2023-02-15T14:59:17.991Z,41.79
2023-02-15T15:02:00.509Z,41.84
2023-02-15T15:04:36.545Z,41.83
2023-02-15T15:07:24.396Z,41.71
2023-02-15T15:10:17.014Z,41.66
2023-02-15T15:12:50.114Z,41.73
2023-02-15T15:15:47.417Z,41.65
2023-02-15T15:18:52.878Z,41.58
2023-02-15T15:22:05.324Z,41.64
2023-02-15T15:24:53.772Z,41.62
2023-02-15T15:27:57.720Z,41.44
2023-02-15T15:31:02.961Z,41.41
2023-02-15T15:34:18.421Z,41.37
2023-02-15T15:37:27.605Z,41.52
2023-02-15T15:40:28.456Z,41.48
2023-02-15T15:43:29.146Z,41.59
2023-02-15T15:46:14.774Z,41.67
2023-02-15T15:48:47.410Z,41.71
2023-02-15T15:51:25.070Z,41.73
2023-02-15T15:53:58.056Z,41.70
2023-02-15T15:56:35.763Z,41.80
2023-02-15T15:59:15.578Z,41.91
2023-02-15T16:01:49.316Z,41.94
2023-02-15T16:04:30.933Z,41.99
2023-02-15T16:07:22.738Z,41.90
2023-02-15T16:10:04.232Z,41.97
2023-02-15T16:12:39.145Z,41.97
2023-02-15T16:15:19.516Z,42.01
2023-02-15T16:17:56.319Z,41.97
2023-02-15T16:20:32.800Z,42.03
2023-02-15T16:23:21.784Z,42.08
2023-02-15T16:26:05.407Z,42.18
2023-02-15T16:28:37.934Z,42.24
2023-02-15T16:31:14.525Z,42.16
2023-02-15T16:33:47.918Z,42.20
2023-02-15T16:36:27.367Z,42.25
2023-02-15T16:39:20.119Z,42.27
2023-02-15T16:41:56.900Z,42.32
2023-02-15T16:44:34.024Z,42.34
2023-02-15T16:47:06.534Z,42.35
2023-02-15T16:49:40.562Z,42.49
2023-02-15T16:52:22.169Z,42.62
2023-02-15T16:55:00.320Z,42.50
2023-02-15T16:57:36.967Z,42.62
2023-02-15T17:00:21.740Z,42.68
2023-02-15T17:03:04.045Z,42.59
2023-02-15T17:05:42.573Z,42.63
2023-02-15T17:08:20.668Z,42.63
2023-02-15T17:11:08.235Z,43.00
2023-02-15T17:13:41.268Z,42.89
2023-02-15T17:16:32.778Z,42.94
2023-02-15T17:19:11.649Z,42.89
2023-02-15T17:21:50.291Z,43.25
2023-02-15T17:24:27.601Z,43.01
2023-02-15T17:27:03.132Z,43.19
2023-02-15T17:29:39.924Z,43.13
2023-02-15T17:32:21.993Z,43.36
2023-02-15T17:35:11.445Z,43.27
2023-02-15T17:37:51.483Z,43.43
2023-02-15T17:40:27.532Z,43.40
2023-02-15T17:42:59.985Z,43.59
2023-02-15T17:45:36.537Z,43.62
2023-02-15T17:48:20.882Z,43.73
2023-02-15T17:50:53.489Z,43.59
2023-02-15T17:53:27.753Z,43.67
2023-02-15T17:56:00.906Z,44.02
2023-02-15T17:58:33.493Z,44.00
2023-02-15T18:01:26.315Z,44.08
2023-02-15T18:04:16.769Z,44.19
2023-02-15T18:07:07.212Z,44.36
2023-02-15T18:09:57.201Z,44.31
2023-02-15T18:12:31.932Z,44.47
2023-02-15T18:15:04.596Z,44.39
2023-02-15T18:17:43.014Z,44.54
2023-02-15T18:20:24.492Z,44.67
2023-02-15T18:22:57.509Z,44.73
2023-02-15T18:25:30.007Z,44.91
2023-02-15T18:28:07.789Z,44.54
2023-02-15T18:30:45.486Z,45.05
2023-02-15T18:33:31.170Z,45.04
2023-02-15T18:36:05.809Z,44.85
2023-02-15T18:38:39.410Z,45.04
2023-02-15T18:41:18.163Z,44.99
2023-02-15T18:43:54.232Z,45.03
2023-02-15T18:46:25.210Z,45.32
2023-02-15T18:48:59.935Z,45.72
2023-02-15T18:51:35.582Z,45.47
2023-02-15T18:54:17.016Z,45.47
2023-02-15T18:56:54.609Z,45.80
2023-02-15T18:59:28.382Z,45.97
2023-02-15T19:02:01.540Z,45.78
2023-02-15T19:04:35.833Z,45.94
2023-02-15T19:07:16.194Z,45.86
2023-02-15T19:09:54.261Z,45.96
2023-02-15T19:12:30.631Z,45.96
2023-02-15T19:15:02.952Z,46.09
2023-02-15T19:17:35.365Z,46.19
2023-02-15T19:20:11.513Z,46.24
2023-02-15T19:22:44.007Z,46.56
2023-02-15T19:25:23.351Z,46.31
2023-02-15T19:27:57.937Z,46.49
2023-02-15T19:30:33.554Z,46.67
2023-02-15T19:33:06.652Z,46.58
2023-02-15T19:35:41.236Z,46.79
2023-02-15T19:38:20.276Z,46.89
2023-02-15T19:40:53.399Z,46.82
2023-02-15T19:43:27.876Z,46.83
2023-02-15T19:46:00.617Z,46.95
2023-02-15T19:48:33.325Z,47.20
2023-02-15T19:51:07.183Z,47.08
2023-02-15T19:53:39.614Z,47.36
2023-02-15T19:56:15.870Z,47.38
2023-02-15T19:58:50.641Z,47.10
2023-02-15T20:01:23.515Z,47.43
2023-02-15T20:03:55.891Z,47.56
2023-02-15T20:06:28.227Z,47.37
2023-02-15T20:09:00.736Z,47.62
2023-02-15T20:11:33.021Z,47.64
2023-02-15T20:14:07.251Z,47.52
2023-02-15T20:16:43.179Z,47.75
2023-02-15T20:19:16.588Z,47.58
2023-02-15T20:21:55.075Z,47.58
2023-02-15T20:24:29.881Z,47.91
2023-02-15T20:27:02.314Z,47.80
2023-02-15T20:29:34.589Z,48.14
2023-02-15T20:32:12.828Z,48.20
2023-02-15T20:34:45.485Z,48.02
2023-02-15T20:37:26.451Z,48.20
2023-02-15T20:39:59.298Z,48.17
2023-02-15T20:42:31.661Z,48.40
2023-02-15T20:45:07.443Z,48.52
2023-02-15T20:47:39.736Z,48.67
2023-02-15T20:50:12.626Z,48.51
2023-02-15T20:52:45.693Z,48.81
2023-02-15T20:55:23.282Z,48.58
2023-02-15T20:57:56.168Z,48.94
2023-02-15T21:00:30.414Z,48.81
2023-02-15T21:03:06.406Z,48.73
2023-02-15T21:05:38.935Z,48.84
2023-02-15T21:08:16.157Z,48.97
2023-02-15T21:10:50.170Z,48.91
2023-02-15T21:13:26.373Z,48.91
2023-02-15T21:15:59.618Z,49.05
2023-02-15T21:18:34.781Z,49.10
2023-02-15T21:21:08.546Z,49.10
2023-02-15T21:23:43.179Z,49.35
2023-02-15T21:26:19.964Z,49.23
2023-02-15T21:28:52.613Z,49.18
2023-02-15T21:31:28.820Z,49.06
2023-02-15T21:34:01.768Z,49.25
2023-02-15T21:36:34.427Z,49.27
2023-02-15T21:39:07.187Z,49.36
2023-02-15T21:41:57.051Z,49.13
2023-02-15T21:44:46.922Z,49.44
2023-02-15T21:47:41.611Z,49.23
2023-02-15T21:50:34.828Z,49.53
2023-02-15T21:53:08.601Z,49.44
2023-02-15T21:55:41.072Z,49.47
2023-02-15T21:58:22.801Z,49.40
2023-02-15T22:00:56.602Z,49.45
2023-02-15T22:03:33.119Z,49.37
2023-02-15T22:06:06.202Z,49.54
2023-02-15T22:08:38.488Z,49.43
2023-02-15T22:11:15.245Z,49.43
2023-02-15T22:13:48.802Z,49.20
2023-02-15T22:16:24.117Z,49.59
2023-02-15T22:18:56.368Z,49.32
2023-02-15T22:21:31.500Z,49.46
2023-02-15T22:24:04.186Z,49.37
2023-02-15T22:26:36.497Z,49.30
2023-02-15T22:29:11.226Z,49.33
2023-02-15T22:31:43.592Z,49.46
2023-02-15T22:34:28.450Z,49.39
2023-02-15T22:37:01.510Z,49.37
2023-02-15T22:39:34.149Z,49.44
2023-02-15T22:42:07.130Z,49.53
2023-02-15T22:44:39.802Z,49.48
2023-02-15T22:47:21.482Z,49.49
2023-02-15T22:49:54.738Z,49.55
2023-02-15T22:52:27.310Z,49.44
2023-02-15T22:54:59.748Z,49.63
2023-02-15T22:57:33.534Z,49.50
2023-02-15T23:00:08.129Z,49.62
2023-02-15T23:02:40.936Z,49.67
2023-02-15T23:05:20.962Z,49.63
2023-02-15T23:07:53.644Z,49.62
2023-02-15T23:10:27.696Z,49.87
2023-02-15T23:13:19.419Z,49.88
2023-02-15T23:15:54.135Z,49.76
2023-02-15T23:18:30.704Z,49.62
2023-02-15T23:21:05.920Z,49.79
2023-02-15T23:23:41.174Z,49.93
2023-02-15T23:26:20.090Z,49.81
2023-02-15T23:28:53.442Z,49.81
2023-02-15T23:31:28.626Z,49.81
2023-02-15T23:34:03.658Z,49.99
2023-02-15T23:36:38.797Z,49.98
2023-02-15T23:39:34.157Z,49.97
2023-02-15T23:42:11.231Z,49.97
2023-02-15T23:44:45.124Z,50.00
2023-02-15T23:47:43.101Z,50.06
2023-02-15T23:50:21.835Z,50.12
2023-02-15T23:52:55.365Z,50.05
2023-02-15T23:55:34.555Z,50.15
2023-02-15T23:58:12.249Z,50.18
